Time;durP1;ratioP1;P1;durP2;ratioP2;P2;SDS_P1;SDS_P2;PMS_P1;PMS_P2;Temp;Humidity;BMP_temperature;BMP_pressure;BME280_temperature;BME280_humidity;BME280_pressure;Samples;Min_cycle;Max_cycle;Signal;HPM_P1;HPM_P2
2022/09/03 00:02:42;;;;;;;2.60;1.30;;;18.90;44.60;;;;;;4984260;28;20038;-49
2022/09/03 00:05:30;;;;;;;1.60;1.48;;;18.90;44.90;;;;;;4994035;28;20042;-49
2022/09/03 00:08:35;;;;;;;3.03;1.20;;;18.80;45.10;;;;;;4990491;28;20051;-49
2022/09/03 00:11:12;;;;;;;3.92;1.60;;;18.80;44.80;;;;;;4986053;28;20054;-53
2022/09/03 00:13:44;;;;;;;1.30;1.20;;;18.70;45.10;;;;;;4992670;28;20034;-50
2022/09/03 00:16:24;;;;;;;2.08;1.67;;;18.70;44.80;;;;;;4992698;28;20042;-51
2022/09/03 00:19:01;;;;;;;2.47;1.40;;;18.70;45.60;;;;;;4986741;28;20063;-51
2022/09/03 00:22:10;;;;;;;1.88;1.35;;;18.60;45.70;;;;;;4987018;28;20042;-48
2022/09/03 00:24:39;;;;;;;2.08;1.58;;;18.60;45.50;;;;;;4960599;28;20580;-52
2022/09/03 00:27:14;;;;;;;3.45;1.70;;;18.50;45.20;;;;;;4975279;28;20046;-49
2022/09/03 00:29:48;;;;;;;2.20;1.40;;;18.50;45.70;;;;;;4990700;28;20049;-51
2022/09/03 00:32:46;;;;;;;3.25;1.60;;;18.50;45.80;;;;;;4992492;28;20560;-49
2022/09/03 00:35:48;;;;;;;1.40;1.30;;;18.40;46.00;;;;;;4979561;28;20062;-51
2022/09/03 00:38:22;;;;;;;2.03;1.42;;;18.40;46.30;;;;;;4985284;28;20070;-49
2022/09/03 00:40:52;;;;;;;2.67;1.85;;;18.40;45.50;;;;;;4992741;28;20046;-51
2022/09/03 00:43:31;;;;;;;1.83;1.58;;;18.30;45.70;;;;;;4972708;28;20170;-50
2022/09/03 00:46:18;;;;;;;3.20;1.60;;;18.30;46.70;;;;;;4990541;28;20035;-55
2022/09/03 00:49:13;;;;;;;1.90;1.70;;;18.20;46.00;;;;;;4986701;28;20057;-50
2022/09/03 00:51:52;;;;;;;2.67;1.63;;;18.20;46.60;;;;;;4986674;28;20038;-50
2022/09/03 00:54:27;;;;;;;1.77;1.60;;;18.20;46.60;;;;;;4991668;28;20054;-50
2022/09/03 00:57:24;;;;;;;1.60;1.42;;;18.20;46.50;;;;;;4989246;28;20046;-54
2022/09/03 01:00:03;;;;;;;1.35;1.25;;;18.20;47.10;;;;;;4992535;28;20034;-49
2022/09/03 01:02:41;;;;;;;1.88;1.70;;;18.10;46.80;;;;;;4990940;28;20050;-52
2022/09/03 01:05:25;;;;;;;2.17;1.65;;;18.10;47.10;;;;;;4987402;28;20047;-48
2022/09/03 01:08:05;;;;;;;5.13;1.60;;;18.10;47.00;;;;;;4988995;28;20034;-51
2022/09/03 01:10:52;;;;;;;1.50;1.40;;;18.10;47.30;;;;;;4986326;28;20089;-53
2022/09/03 01:13:38;;;;;;;2.30;1.85;;;18.00;47.20;;;;;;4991653;28;20050;-49
2022/09/03 01:16:34;;;;;;;1.77;1.40;;;18.10;47.30;;;;;;4985058;28;20104;-51
2022/09/03 01:19:38;;;;;;;1.73;1.63;;;18.00;47.20;;;;;;4991274;28;20073;-49
2022/09/03 01:22:31;;;;;;;2.97;1.90;;;18.00;47.30;;;;;;4989760;28;20070;-49
2022/09/03 01:25:22;;;;;;;1.90;1.48;;;18.00;47.10;;;;;;4986848;28;20046;-49
2022/09/03 01:28:09;;;;;;;3.30;1.67;;;18.00;47.40;;;;;;4991050;28;20109;-52
2022/09/03 01:30:47;;;;;;;2.42;1.90;;;18.00;47.50;;;;;;4972616;28;20043;-50
2022/09/03 01:33:41;;;;;;;2.63;1.77;;;17.90;47.10;;;;;;4984754;28;20522;-49
2022/09/03 01:36:33;;;;;;;3.08;1.30;;;17.90;47.60;;;;;;4990370;28;20116;-50
2022/09/03 01:39:07;;;;;;;2.70;1.88;;;17.90;47.50;;;;;;4990908;28;20058;-51
2022/09/03 01:42:17;;;;;;;2.58;1.55;;;17.90;47.30;;;;;;4988048;28;20121;-53
2022/09/03 01:45:10;;;;;;;1.73;1.33;;;17.90;47.50;;;;;;4987378;28;20038;-49
2022/09/03 01:48:15;;;;;;;2.03;1.80;;;17.90;47.70;;;;;;4983517;28;20046;-53
2022/09/03 01:50:58;;;;;;;2.05;1.50;;;17.80;47.70;;;;;;4989418;28;20049;-51
2022/09/03 01:53:52;;;;;;;1.77;1.67;;;17.80;47.60;;;;;;4984606;28;20517;-50
2022/09/03 01:56:48;;;;;;;1.60;1.50;;;17.80;47.80;;;;;;4989114;28;20057;-52
2022/09/03 02:00:02;;;;;;;1.60;1.50;;;17.80;47.80;;;;;;4991546;28;20038;-49
2022/09/03 02:02:37;;;;;;;2.38;1.65;;;17.70;47.90;;;;;;4960636;28;20125;-49
2022/09/03 02:05:26;;;;;;;3.28;1.88;;;17.70;47.10;;;;;;4990867;28;20503;-49
2022/09/03 02:08:04;;;;;;;1.83;1.45;;;17.70;47.50;;;;;;4989395;28;20426;-49
2022/09/03 02:10:40;;;;;;;4.30;1.60;;;17.70;47.80;;;;;;4990112;28;20038;-53
2022/09/03 02:13:30;;;;;;;1.70;1.38;;;17.60;47.90;;;;;;4988436;28;20081;-52
2022/09/03 02:16:01;;;;;;;1.85;1.60;;;17.60;48.00;;;;;;4990651;28;20046;-51
2022/09/03 02:18:37;;;;;;;3.03;1.70;;;17.60;47.80;;;;;;4990680;28;20539;-51
2022/09/03 02:21:08;;;;;;;1.92;1.65;;;17.60;48.20;;;;;;4984868;28;20057;-53
2022/09/03 02:23:39;;;;;;;3.30;1.80;;;17.60;47.80;;;;;;4990277;28;20030;-51
2022/09/03 02:26:14;;;;;;;2.53;1.40;;;17.60;48.00;;;;;;4990270;28;20061;-50
2022/09/03 02:28:47;;;;;;;3.47;1.52;;;17.60;48.20;;;;;;4986324;28;20038;-52
2022/09/03 02:31:16;;;;;;;2.88;1.85;;;17.60;47.90;;;;;;4973830;28;20480;-51
2022/09/03 02:33:49;;;;;;;5.30;1.83;;;17.60;47.90;;;;;;4989988;28;20053;-53
2022/09/03 02:36:31;;;;;;;5.07;1.42;;;17.60;47.80;;;;;;4989962;28;20361;-50
2022/09/03 02:39:08;;;;;;;2.25;1.60;;;17.60;48.30;;;;;;4986535;28;20042;-50
2022/09/03 02:41:36;;;;;;;3.25;1.70;;;17.50;47.70;;;;;;4987404;28;20157;-52
2022/09/03 02:44:29;;;;;;;3.47;1.60;;;17.50;47.80;;;;;;4990125;28;20104;-52
2022/09/03 02:47:01;;;;;;;5.30;1.80;;;17.50;48.50;;;;;;4988033;28;20042;-50
2022/09/03 02:49:29;;;;;;;2.15;1.60;;;17.50;47.90;;;;;;4985347;28;20035;-49
2022/09/03 02:52:08;;;;;;;3.42;1.27;;;17.50;47.90;;;;;;4989011;28;20038;-51
2022/09/03 02:54:40;;;;;;;2.15;1.67;;;17.50;48.70;;;;;;4991117;28;20038;-49
2022/09/03 02:57:15;;;;;;;1.88;1.70;;;17.40;48.00;;;;;;4997880;28;20038;-52
2022/09/03 02:59:53;;;;;;;1.55;1.25;;;17.50;48.60;;;;;;4989824;28;20038;-49
2022/09/03 03:02:23;;;;;;;1.40;1.30;;;17.40;48.20;;;;;;4981355;28;20494;-50
2022/09/03 03:04:53;;;;;;;2.75;1.75;;;17.40;48.30;;;;;;4990910;28;20042;-52
2022/09/03 03:07:20;;;;;;;2.55;1.30;;;17.40;48.60;;;;;;4984838;28;20053;-49
2022/09/03 03:09:47;;;;;;;2.83;1.42;;;17.30;48.40;;;;;;4990807;28;20073;-48
2022/09/03 03:12:25;;;;;;;3.10;1.70;;;17.30;48.50;;;;;;4989318;28;20050;-48
2022/09/03 03:14:54;;;;;;;2.40;1.30;;;17.30;48.50;;;;;;4984349;28;20072;-50
2022/09/03 03:17:21;;;;;;;1.23;1.13;;;17.30;48.60;;;;;;4985638;28;20040;-49
2022/09/03 03:19:50;;;;;;;1.80;1.60;;;17.30;48.50;;;;;;4994649;28;20443;-48
2022/09/03 03:22:24;;;;;;;2.55;1.20;;;17.30;48.60;;;;;;4986244;28;20054;-51
2022/09/03 03:24:55;;;;;;;1.77;1.35;;;17.30;48.70;;;;;;4990329;28;20054;-48
2022/09/03 03:27:22;;;;;;;1.37;1.27;;;17.30;49.00;;;;;;4991411;28;20050;-52
2022/09/03 03:29:49;;;;;;;2.55;1.42;;;17.30;48.70;;;;;;4994420;28;20030;-49
2022/09/03 03:32:16;;;;;;;1.55;1.10;;;17.30;48.90;;;;;;4993057;28;20050;-49
2022/09/03 03:34:43;;;;;;;3.20;1.38;;;17.30;49.00;;;;;;4987475;28;20459;-54
2022/09/03 03:37:09;;;;;;;1.77;1.30;;;17.30;48.90;;;;;;4987635;28;20049;-51
2022/09/03 03:39:39;;;;;;;1.83;1.45;;;17.30;49.10;;;;;;4993852;28;20069;-52
2022/09/03 03:42:13;;;;;;;2.95;1.75;;;17.30;49.00;;;;;;4992445;28;20050;-49
2022/09/03 03:44:42;;;;;;;1.25;1.13;;;17.40;49.20;;;;;;4989296;28;20096;-49
2022/09/03 03:47:15;;;;;;;2.75;1.00;;;17.40;49.30;;;;;;4992293;28;20050;-51
2022/09/03 03:49:45;;;;;;;1.23;1.13;;;17.50;49.10;;;;;;4987116;28;20042;-49
2022/09/03 03:52:12;;;;;;;1.95;1.20;;;17.50;49.10;;;;;;4992048;28;20604;-52
2022/09/03 03:54:40;;;;;;;1.35;1.20;;;17.60;49.10;;;;;;4990049;28;20035;-49
2022/09/03 03:57:14;;;;;;;1.55;1.05;;;17.70;49.80;;;;;;4999346;28;20076;-51
2022/09/03 03:59:41;;;;;;;1.27;1.17;;;17.70;49.00;;;;;;4993942;28;20105;-49
2022/09/03 04:02:12;;;;;;;3.25;1.77;;;17.80;49.30;;;;;;4992337;28;20446;-51
2022/09/03 04:04:39;;;;;;;1.23;1.15;;;17.80;48.90;;;;;;4987777;28;20070;-51
2022/09/03 04:07:07;;;;;;;1.33;0.93;;;17.90;49.10;;;;;;4992336;28;20047;-49
2022/09/03 04:09:34;;;;;;;1.08;0.90;;;18.00;48.80;;;;;;4993604;28;20069;-50
2022/09/03 04:12:04;;;;;;;1.02;0.70;;;18.00;48.90;;;;;;4992236;28;20121;-48
2022/09/03 04:14:31;;;;;;;1.90;1.15;;;18.10;48.50;;;;;;4989860;28;20089;-50
2022/09/03 04:17:01;;;;;;;2.40;1.05;;;18.10;48.70;;;;;;4992787;28;20414;-53
2022/09/03 04:19:29;;;;;;;1.52;1.23;;;18.10;48.20;;;;;;4992619;28;20054;-48
2022/09/03 04:21:55;;;;;;;1.98;1.02;;;18.20;48.40;;;;;;4989888;28;20026;-51
2022/09/03 04:24:22;;;;;;;1.42;1.30;;;18.20;48.50;;;;;;4993348;28;20049;-48
2022/09/03 04:26:49;;;;;;;2.13;1.30;;;18.30;48.70;;;;;;4992651;28;20038;-53
2022/09/03 04:29:17;;;;;;;1.15;0.82;;;18.30;48.70;;;;;;4993157;28;20081;-51
2022/09/03 04:34:36;;;;;;;1.20;1.10;;;18.40;48.30;;;;;;4987424;28;20450;-51
2022/09/03 04:37:03;;;;;;;1.27;0.85;;;18.40;48.20;;;;;;5000411;28;20045;-51
2022/09/03 04:39:30;;;;;;;0.80;0.80;;;18.50;48.20;;;;;;5013020;28;20072;-49
2022/09/03 04:41:59;;;;;;;2.00;0.75;;;18.50;47.70;;;;;;4991465;28;20035;-50
2022/09/03 04:44:28;;;;;;;1.00;0.75;;;18.50;48.00;;;;;;4993038;28;20046;-53
2022/09/03 04:46:55;;;;;;;1.50;0.73;;;18.50;48.00;;;;;;4992647;28;20113;-53
2022/09/03 04:49:24;;;;;;;1.02;0.80;;;18.60;48.10;;;;;;4988241;28;20565;-49
2022/09/03 04:51:58;;;;;;;1.13;1.02;;;18.60;48.30;;;;;;4986995;28;20121;-50
2022/09/03 04:54:25;;;;;;;0.93;0.90;;;18.50;48.40;;;;;;4986266;28;20691;-49
2022/09/03 04:56:57;;;;;;;1.00;1.00;;;18.70;48.20;;;;;;5000871;28;20080;-50
2022/09/03 04:59:28;;;;;;;2.28;0.98;;;18.60;48.00;;;;;;4991060;28;20039;-49
2022/09/03 05:01:58;;;;;;;1.38;0.80;;;18.60;48.10;;;;;;4988812;28;20035;-51
2022/09/03 05:04:31;;;;;;;0.90;0.90;;;18.70;47.70;;;;;;4992794;28;20302;-48
2022/09/03 05:06:58;;;;;;;0.70;0.70;;;18.70;48.00;;;;;;4992141;28;20047;-50
2022/09/03 05:09:25;;;;;;;3.10;1.42;;;18.70;48.20;;;;;;4985914;28;20100;-50
2022/09/03 05:11:52;;;;;;;1.17;0.98;;;18.70;48.20;;;;;;4988565;28;20053;-52
2022/09/03 05:14:19;;;;;;;0.77;0.77;;;18.70;48.30;;;;;;4985125;28;20046;-49
2022/09/03 05:16:47;;;;;;;2.25;1.02;;;18.70;47.90;;;;;;4990061;28;20131;-53
2022/09/03 05:19:22;;;;;;;1.13;1.00;;;18.80;48.00;;;;;;4992318;28;20105;-52
2022/09/03 05:21:48;;;;;;;2.20;1.27;;;18.80;47.90;;;;;;4991434;28;20096;-50
2022/09/03 05:24:17;;;;;;;1.50;0.90;;;18.80;47.90;;;;;;4990592;28;20042;-50
2022/09/03 05:26:44;;;;;;;2.13;0.70;;;18.80;48.20;;;;;;4987876;28;20046;-51
2022/09/03 05:29:11;;;;;;;4.00;1.08;;;18.80;48.10;;;;;;4989068;28;20046;-49
2022/09/03 05:31:38;;;;;;;0.80;0.80;;;18.90;47.70;;;;;;4991980;28;20070;-51
2022/09/03 05:34:09;;;;;;;2.15;1.02;;;19.00;48.50;;;;;;4992373;28;20046;-56
2022/09/03 05:36:42;;;;;;;1.38;1.00;;;19.00;48.20;;;;;;4991876;28;20066;-57
2022/09/03 05:39:08;;;;;;;1.52;1.20;;;19.10;47.70;;;;;;4988088;28;20051;-58
2022/09/03 05:41:35;;;;;;;1.80;1.02;;;19.10;47.30;;;;;;4990753;28;20049;-58
2022/09/03 05:44:02;;;;;;;0.90;0.75;;;19.20;47.00;;;;;;4992131;28;20101;-56
2022/09/03 05:46:32;;;;;;;2.88;0.93;;;19.30;46.70;;;;;;4989978;28;20066;-58
2022/09/03 05:49:06;;;;;;;0.70;0.60;;;19.40;47.00;;;;;;4997092;28;20050;-57
2022/09/03 05:51:38;;;;;;;3.30;1.00;;;19.40;47.40;;;;;;4972730;28;20045;-58
2022/09/03 05:54:10;;;;;;;1.88;0.80;;;19.50;47.20;;;;;;5003282;28;20054;-57
2022/09/03 05:56:41;;;;;;;2.38;0.82;;;19.60;47.10;;;;;;5009913;28;20041;-57
2022/09/03 05:59:12;;;;;;;1.00;0.70;;;19.70;47.30;;;;;;4986614;28;20046;-58
2022/09/03 06:01:48;;;;;;;1.17;0.87;;;19.70;47.00;;;;;;4990393;28;20039;-58
2022/09/03 06:04:24;;;;;;;0.82;0.82;;;19.80;46.40;;;;;;4970647;28;20286;-58
2022/09/03 06:06:55;;;;;;;0.98;0.73;;;19.80;45.90;;;;;;4981900;28;20096;-59
2022/09/03 06:09:26;;;;;;;1.33;0.95;;;19.90;46.50;;;;;;4978059;28;20605;-57
2022/09/03 06:11:53;;;;;;;0.90;0.90;;;19.90;46.40;;;;;;4990193;28;20042;-57
2022/09/03 06:14:22;;;;;;;1.20;0.90;;;19.90;46.20;;;;;;4982922;28;20053;-59
2022/09/03 06:16:51;;;;;;;2.92;1.08;;;19.90;46.40;;;;;;4988811;28;20050;-58
2022/09/03 06:19:18;;;;;;;1.33;1.23;;;19.90;46.70;;;;;;4968058;28;20066;-57
2022/09/03 06:21:47;;;;;;;1.08;0.75;;;19.90;46.30;;;;;;4987898;28;20046;-56
2022/09/03 06:24:16;;;;;;;1.98;0.75;;;19.90;46.60;;;;;;4972246;28;20038;-58
2022/09/03 06:26:43;;;;;;;0.85;0.80;;;19.90;47.10;;;;;;4984600;28;20062;-58
2022/09/03 06:29:11;;;;;;;0.93;0.93;;;19.90;46.40;;;;;;4989298;28;20034;-58
2022/09/03 06:31:38;;;;;;;2.05;0.90;;;19.90;46.10;;;;;;4995517;28;20472;-60
2022/09/03 06:34:05;;;;;;;0.82;0.80;;;19.90;46.20;;;;;;4966834;28;20050;-56
2022/09/03 06:36:32;;;;;;;2.40;1.08;;;19.90;46.90;;;;;;4989250;28;20121;-58
2022/09/03 06:38:58;;;;;;;2.25;0.90;;;20.00;47.40;;;;;;4970629;28;20042;-58
2022/09/03 06:41:29;;;;;;;0.95;0.70;;;20.00;46.30;;;;;;4989842;28;20056;-58
2022/09/03 06:44:01;;;;;;;2.03;0.82;;;20.00;46.30;;;;;;4986519;28;20384;-58
2022/09/03 06:46:30;;;;;;;1.55;1.08;;;20.10;46.30;;;;;;4989386;28;20526;-58
2022/09/03 06:48:57;;;;;;;2.63;1.00;;;20.10;45.80;;;;;;4990634;28;20042;-58
2022/09/03 06:51:26;;;;;;;3.10;1.25;;;20.10;45.80;;;;;;4985918;28;20125;-58
2022/09/03 06:53:58;;;;;;;1.40;1.13;;;20.20;46.00;;;;;;4989726;28;20491;-57
2022/09/03 06:56:27;;;;;;;3.45;0.85;;;20.20;45.90;;;;;;4984856;28;20470;-58
2022/09/03 06:59:05;;;;;;;1.90;0.93;;;20.30;46.00;;;;;;4990503;28;20558;-57
2022/09/03 07:01:38;;;;;;;0.73;0.73;;;20.40;45.60;;;;;;4984669;28;20105;-55
2022/09/03 07:04:06;;;;;;;2.20;0.98;;;20.50;45.60;;;;;;4988722;28;20050;-56
2022/09/03 07:06:38;;;;;;;2.28;0.93;;;20.60;44.90;;;;;;4989607;28;20551;-57
2022/09/03 07:09:06;;;;;;;;;;;20.70;45.00;;;;;;4989505;28;20566;-55
2022/09/03 07:11:45;;;;;;;2.95;1.23;;;20.80;44.80;;;;;;4963760;28;20383;-55
2022/09/03 07:14:18;;;;;;;2.88;0.90;;;20.90;44.50;;;;;;4989560;28;20446;-58
2022/09/03 07:16:49;;;;;;;2.58;1.20;;;21.00;44.40;;;;;;4988831;28;20402;-57
2022/09/03 07:19:16;;;;;;;1.60;0.77;;;21.10;44.30;;;;;;4989311;28;20396;-57
2022/09/03 07:21:48;;;;;;;1.75;0.90;;;21.20;44.10;;;;;;4980693;28;20057;-56
2022/09/03 07:24:18;;;;;;;0.95;0.82;;;21.20;44.10;;;;;;4989545;28;20042;-55
2022/09/03 07:26:46;;;;;;;3.00;0.98;;;21.30;44.10;;;;;;4989434;28;20046;-57
2022/09/03 07:29:18;;;;;;;1.80;1.10;;;21.40;44.00;;;;;;4988946;28;20055;-57
2022/09/03 07:31:46;;;;;;;1.88;1.17;;;21.40;43.70;;;;;;4986931;28;20065;-55
2022/09/03 07:34:15;;;;;;;4.90;0.98;;;21.50;43.70;;;;;;4987144;28;20054;-57
2022/09/03 07:36:52;;;;;;;1.88;1.02;;;21.50;43.40;;;;;;4985536;28;20049;-54
2022/09/03 07:39:19;;;;;;;3.15;1.05;;;21.60;43.50;;;;;;4979077;28;20125;-56
2022/09/03 07:41:46;;;;;;;1.65;1.00;;;21.60;43.30;;;;;;4986439;28;20042;-54
2022/09/03 07:44:18;;;;;;;1.60;0.70;;;21.60;43.10;;;;;;4989171;28;20038;-56
2022/09/03 07:46:46;;;;;;;3.90;0.75;;;21.70;43.20;;;;;;4989632;28;20096;-56
2022/09/03 07:49:23;;;;;;;1.90;0.80;;;21.70;43.10;;;;;;4985655;28;20042;-60
2022/09/03 07:51:54;;;;;;;1.13;1.10;;;21.80;43.00;;;;;;4986713;28;20039;-58
2022/09/03 07:54:24;;;;;;;2.22;0.85;;;21.80;42.80;;;;;;4982213;28;20042;-57
2022/09/03 07:56:51;;;;;;;1.67;0.85;;;21.90;43.00;;;;;;4979719;28;20038;-55
2022/09/03 07:59:21;;;;;;;1.15;0.82;;;22.00;43.00;;;;;;4986111;28;20042;-55
2022/09/03 08:01:49;;;;;;;1.75;1.10;;;22.00;42.80;;;;;;4985256;28;20061;-55
2022/09/03 08:04:16;;;;;;;2.70;1.10;;;22.10;42.80;;;;;;4991665;28;20046;-58
2022/09/03 08:06:43;;;;;;;3.03;1.13;;;22.20;42.90;;;;;;4988350;28;20392;-56
2022/09/03 08:09:13;;;;;;;2.70;1.20;;;22.30;42.70;;;;;;4991867;28;20046;-57
2022/09/03 08:11:42;;;;;;;1.23;0.80;;;22.30;42.30;;;;;;4992782;28;20066;-55
2022/09/03 08:14:16;;;;;;;2.70;0.90;;;22.50;42.40;;;;;;4991611;28;20043;-56
2022/09/03 08:16:52;;;;;;;0.98;0.80;;;22.60;42.20;;;;;;4985472;28;20129;-56
2022/09/03 08:19:19;;;;;;;1.92;0.90;;;22.70;42.60;;;;;;4993887;28;20109;-57
2022/09/03 08:21:47;;;;;;;2.35;1.20;;;22.80;41.60;;;;;;4991373;28;20038;-53
2022/09/03 08:24:16;;;;;;;0.98;0.90;;;22.90;41.60;;;;;;4992192;28;20515;-55
2022/09/03 08:26:45;;;;;;;2.35;0.80;;;23.00;41.50;;;;;;4989615;28;20038;-54
2022/09/03 08:29:19;;;;;;;4.57;1.63;;;23.10;41.60;;;;;;4994372;28;20121;-57
2022/09/03 08:31:46;;;;;;;3.35;1.00;;;23.20;41.10;;;;;;4992181;28;20086;-57
2022/09/03 08:34:15;;;;;;;0.90;0.90;;;23.30;40.90;;;;;;4989114;28;20046;-55
2022/09/03 08:36:43;;;;;;;3.47;0.60;;;23.40;40.90;;;;;;4987157;28;20507;-57
2022/09/03 08:39:10;;;;;;;2.92;0.80;;;23.40;40.80;;;;;;4993750;28;20042;-56
2022/09/03 08:42:17;;;;;;;2.28;1.00;;;23.50;40.80;;;;;;4992424;28;20582;-58
2022/09/03 08:44:55;;;;;;;3.42;1.00;;;23.60;40.50;;;;;;4989107;28;20038;-55
2022/09/03 08:47:25;;;;;;;0.80;0.70;;;23.60;40.70;;;;;;4985009;28;20507;-54
2022/09/03 08:49:59;;;;;;;1.73;1.20;;;23.70;40.50;;;;;;4993527;28;20086;-57
2022/09/03 08:52:36;;;;;;;2.40;1.35;;;23.70;40.20;;;;;;4988787;28;20034;-57
2022/09/03 08:55:27;;;;;;;2.13;1.05;;;23.70;40.40;;;;;;4987664;28;20052;-56
2022/09/03 08:58:06;;;;;;;4.18;1.30;;;23.70;40.40;;;;;;5017792;22;20042;-52
2022/09/03 09:01:08;;;;;;;1.30;1.10;;;23.70;40.10;;;;;;5010085;28;20065;-52
2022/09/03 09:04:05;;;;;;;3.45;0.80;;;23.70;40.10;;;;;;5011929;28;20127;-53
2022/09/03 09:06:55;;;;;;;4.57;1.20;;;23.70;40.20;;;;;;5004905;28;20088;-51
2022/09/03 09:09:52;;;;;;;2.80;0.80;;;23.80;40.20;;;;;;5012928;28;20092;-54
2022/09/03 09:12:30;;;;;;;1.10;0.90;;;23.70;40.00;;;;;;4979461;28;20389;-54
2022/09/03 09:15:12;;;;;;;2.28;1.13;;;23.80;40.10;;;;;;4987134;28;20056;-54
2022/09/03 09:17:51;;;;;;;2.20;1.15;;;23.80;40.40;;;;;;4987930;28;20042;-55
2022/09/03 09:20:32;;;;;;;2.60;1.02;;;23.80;40.20;;;;;;4989772;28;20245;-54
2022/09/03 09:23:09;;;;;;;0.80;0.80;;;23.80;40.10;;;;;;4991157;28;20114;-54
2022/09/03 09:25:47;;;;;;;1.40;0.80;;;23.80;39.90;;;;;;5001178;28;20038;-55
2022/09/03 09:28:17;;;;;;;2.20;0.70;;;23.80;40.00;;;;;;4983848;28;20049;-53
2022/09/03 09:30:49;;;;;;;8.52;0.98;;;23.80;40.10;;;;;;5000094;28;20084;-54
2022/09/03 09:33:19;;;;;;;3.58;1.08;;;23.90;40.00;;;;;;4990273;28;20038;-55
2022/09/03 09:35:46;;;;;;;4.50;0.70;;;23.90;40.10;;;;;;4999951;28;20101;-52
2022/09/03 09:38:14;;;;;;;6.28;1.00;;;23.90;40.20;;;;;;5011154;28;20104;-56
2022/09/03 09:40:44;;;;;;;0.65;0.65;;;23.90;40.20;;;;;;4994394;28;20047;-54
2022/09/03 09:43:18;;;;;;;1.80;1.00;;;24.00;40.30;;;;;;4999430;28;20050;-53
2022/09/03 09:45:47;;;;;;;2.33;1.10;;;24.00;40.30;;;;;;5003961;28;20038;-53
2022/09/03 09:48:30;;;;;;;3.58;1.10;;;24.10;40.20;;;;;;5003643;28;20104;-52
2022/09/03 09:51:10;;;;;;;1.35;0.95;;;24.10;40.20;;;;;;4991578;28;20125;-56
2022/09/03 09:53:40;;;;;;;1.17;1.05;;;24.20;40.20;;;;;;5000563;28;20050;-51
2022/09/03 09:56:07;;;;;;;1.63;1.17;;;24.20;40.20;;;;;;4996309;28;20103;-53
2022/09/03 09:58:35;;;;;;;2.60;1.00;;;24.30;40.20;;;;;;4988868;28;20046;-56
2022/09/03 10:01:06;;;;;;;2.67;1.10;;;24.30;40.20;;;;;;4992276;28;20462;-55
2022/09/03 10:03:36;;;;;;;1.90;1.73;;;24.30;40.50;;;;;;5002950;28;20091;-54
2022/09/03 10:09:05;;;;;;;2.08;1.10;;;24.50;40.50;;;;;;4987746;28;20053;-55
2022/09/03 10:11:38;;;;;;;1.15;0.77;;;24.50;40.30;;;;;;4998319;28;20494;-53
2022/09/03 10:14:29;;;;;;;1.85;1.02;;;24.60;40.40;;;;;;4998552;28;20085;-55
2022/09/03 10:17:15;;;;;;;1.25;0.98;;;24.70;40.40;;;;;;4990080;28;20065;-54
2022/09/03 10:22:53;;;;;;;1.17;1.08;;;24.90;39.80;;;;;;4996738;28;20042;-54
2022/09/03 10:25:29;;;;;;;2.80;0.73;;;25.00;39.90;;;;;;5002868;28;20038;-54
2022/09/03 10:28:00;;;;;;;2.15;1.00;;;25.00;39.70;;;;;;4988951;28;20097;-55
2022/09/03 10:30:31;;;;;;;1.45;1.10;;;25.10;39.60;;;;;;5001042;28;20045;-54
2022/09/03 10:33:16;;;;;;;2.40;0.90;;;25.10;39.20;;;;;;5002446;28;20453;-53
2022/09/03 10:35:50;;;;;;;1.55;1.33;;;25.20;39.20;;;;;;5008277;28;20054;-54
2022/09/03 10:38:32;;;;;;;1.75;1.00;;;25.20;39.20;;;;;;4994234;28;20042;-55
2022/09/03 10:41:24;;;;;;;1.60;1.20;;;25.20;39.40;;;;;;4986644;28;20042;-54
2022/09/03 10:44:00;;;;;;;1.30;1.20;;;25.30;39.40;;;;;;4986219;28;20042;-55
2022/09/03 10:46:34;;;;;;;1.90;1.30;;;25.30;39.90;;;;;;4991958;28;20631;-56
2022/09/03 10:49:27;;;;;;;1.92;1.65;;;25.40;39.40;;;;;;4991290;28;20062;-53
2022/09/03 10:52:07;;;;;;;1.98;1.42;;;25.50;39.10;;;;;;4987472;28;20046;-56
2022/09/03 10:54:37;;;;;;;1.67;1.33;;;25.60;39.10;;;;;;4988925;28;20046;-55
2022/09/03 10:57:16;;;;;;;2.15;1.10;;;25.60;39.10;;;;;;4981697;28;20090;-54
2022/09/03 11:00:09;;;;;;;2.03;1.13;;;25.70;39.50;;;;;;4988936;28;20062;-56
2022/09/03 11:03:01;;;;;;;3.60;1.38;;;25.70;39.20;;;;;;4991609;28;20049;-54
2022/09/03 11:05:39;;;;;;;2.23;1.07;;;25.80;39.20;;;;;;4994534;28;20521;-52
2022/09/03 11:08:29;;;;;;;1.27;1.10;;;26.00;39.30;;;;;;4994440;28;20034;-55
2022/09/03 11:11:20;;;;;;;1.15;1.13;;;26.10;39.40;;;;;;4983672;28;20047;-55
2022/09/03 11:14:09;;;;;;;1.55;1.20;;;26.20;39.30;;;;;;4972070;28;20483;-55
2022/09/03 11:16:51;;;;;;;2.50;1.52;;;26.30;39.50;;;;;;4997404;28;20045;-55
2022/09/03 11:19:31;;;;;;;6.53;1.52;;;26.40;39.40;;;;;;5002633;28;20046;-53
2022/09/03 11:21:59;;;;;;;1.17;1.17;;;26.50;39.10;;;;;;5004177;28;20101;-56
2022/09/03 11:24:29;;;;;;;2.20;1.20;;;26.60;39.10;;;;;;4992548;28;20046;-52
2022/09/03 11:27:30;;;;;;;1.23;1.15;;;26.80;39.00;;;;;;4988677;28;20522;-51
2022/09/03 11:30:02;;;;;;;1.58;1.05;;;26.90;38.80;;;;;;4993740;28;20050;-52
2022/09/03 11:32:49;;;;;;;3.03;1.60;;;27.00;38.80;;;;;;4993375;28;20112;-54
2022/09/03 11:35:33;;;;;;;2.20;1.40;;;27.00;39.10;;;;;;4979374;28;20045;-48
2022/09/03 11:38:03;;;;;;;1.75;1.30;;;27.10;39.00;;;;;;5008132;28;20469;-53
2022/09/03 11:41:02;;;;;;;3.30;1.42;;;27.10;38.70;;;;;;5004808;28;20579;-53
2022/09/03 11:43:31;;;;;;;1.73;1.23;;;27.20;38.70;;;;;;4997909;28;20498;-53
2022/09/03 11:46:21;;;;;;;1.48;1.30;;;27.20;38.90;;;;;;5006223;28;20129;-53
2022/09/03 11:48:51;;;;;;;1.80;1.30;;;27.30;39.00;;;;;;4995616;28;20046;-53
2022/09/03 11:51:29;;;;;;;2.63;1.60;;;27.30;38.60;;;;;;4993420;28;20100;-50
2022/09/03 11:54:02;;;;;;;2.92;1.20;;;27.20;38.90;;;;;;4997596;28;20537;-51
2022/09/03 11:56:31;;;;;;;1.30;1.15;;;27.30;39.60;;;;;;4988758;28;20112;-50
2022/09/03 11:59:03;;;;;;;2.25;1.13;;;27.30;39.00;;;;;;4992831;28;20054;-51
2022/09/03 12:01:30;;;;;;;;;;;27.40;38.90;;;;;;4993620;28;20050;-51
2022/09/03 12:04:04;;;;;;;2.38;1.15;;;27.40;38.80;;;;;;4994247;28;19926;-53
2022/09/03 12:06:52;;;;;;;2.45;1.42;;;27.50;38.60;;;;;;5004815;28;20503;-53
2022/09/03 12:09:34;;;;;;;3.15;1.33;;;27.50;38.70;;;;;;4994410;28;20093;-53
2022/09/03 12:12:13;;;;;;;5.78;1.45;;;27.50;39.00;;;;;;4989850;28;20557;-52
2022/09/03 12:15:13;;;;;;;2.30;1.05;;;27.60;39.10;;;;;;4983709;28;20084;-53
2022/09/03 12:20:40;;;;;;;2.55;1.38;;;27.70;38.60;;;;;;4993446;28;20491;-53
2022/09/03 12:23:10;;;;;;;2.70;1.55;;;27.80;38.70;;;;;;5004403;28;20099;-53
2022/09/03 12:25:47;;;;;;;2.95;1.10;;;27.90;38.90;;;;;;4996761;28;20054;-53
2022/09/03 12:28:22;;;;;;;1.17;1.10;;;28.00;38.70;;;;;;4989356;28;20408;-52
2022/09/03 12:30:52;;;;;;;1.95;1.05;;;28.00;38.30;;;;;;4979020;28;20446;-54
2022/09/03 12:33:20;;;;;;;3.28;1.60;;;28.10;38.50;;;;;;5001413;28;20054;-54
2022/09/03 12:36:00;;;;;;;1.95;1.40;;;28.20;38.60;;;;;;4992479;28;20042;-53
2022/09/03 12:38:31;;;;;;;1.60;1.27;;;28.30;38.40;;;;;;4980020;28;20050;-51
2022/09/03 12:41:26;;;;;;;2.33;1.83;;;28.30;38.00;;;;;;4989510;28;20042;-52
2022/09/03 12:43:58;;;;;;;1.60;1.50;;;28.40;37.70;;;;;;4998583;28;20042;-53
2022/09/03 12:46:32;;;;;;;4.10;1.85;;;28.50;37.80;;;;;;4991152;28;20034;-53
2022/09/03 12:49:06;;;;;;;1.60;1.50;;;28.50;37.70;;;;;;4994625;28;20047;-52
2022/09/03 12:52:06;;;;;;;1.50;1.38;;;28.50;37.50;;;;;;4997306;28;20039;-53
2022/09/03 12:54:43;;;;;;;1.70;1.30;;;28.60;37.80;;;;;;4980410;28;20046;-53
2022/09/03 12:57:21;;;;;;;3.20;1.77;;;28.70;37.90;;;;;;4988523;28;20668;-55
2022/09/03 12:59:54;;;;;;;2.25;1.33;;;28.70;37.60;;;;;;4990549;28;20050;-54
2022/09/03 13:02:27;;;;;;;1.55;1.17;;;28.80;37.50;;;;;;4991713;28;20038;-55
2022/09/03 13:04:55;;;;;;;1.77;1.55;;;28.90;37.30;;;;;;4990236;28;20050;-55
2022/09/03 13:07:32;;;;;;;2.85;1.60;;;29.00;37.20;;;;;;4991370;28;20819;-55
2022/09/03 13:10:07;;;;;;;1.83;1.30;;;29.10;37.20;;;;;;5003114;28;20127;-55
2022/09/03 13:12:46;;;;;;;3.35;1.52;;;29.20;36.80;;;;;;4987290;28;20042;-54
2022/09/03 13:15:23;;;;;;;1.42;1.33;;;29.30;36.90;;;;;;4990007;28;20061;-52
2022/09/03 13:18:06;;;;;;;2.10;1.20;;;29.40;36.80;;;;;;4991525;28;20108;-54
2022/09/03 13:20:39;;;;;;;1.52;1.42;;;29.50;37.00;;;;;;4999387;28;20101;-55
2022/09/03 13:23:30;;;;;;;1.20;1.20;;;29.60;36.70;;;;;;4994061;28;20062;-55
2022/09/03 13:26:19;;;;;;;1.52;1.42;;;29.80;36.40;;;;;;4987535;28;20053;-54
2022/09/03 13:29:04;;;;;;;2.20;1.17;;;29.90;35.90;;;;;;4993297;28;20038;-55
2022/09/03 13:31:54;;;;;;;1.75;1.55;;;30.10;36.20;;;;;;4974869;28;20050;-51
2022/09/03 13:34:47;;;;;;;1.88;1.45;;;30.30;36.10;;;;;;4991898;28;20112;-54
2022/09/03 13:37:13;;;;;;;1.30;1.20;;;30.50;36.10;;;;;;4994277;28;20097;-53
2022/09/03 13:39:51;;;;;;;1.02;1.02;;;30.80;36.10;;;;;;5004034;28;20457;-54
2022/09/03 13:42:30;;;;;;;4.82;1.20;;;31.40;36.30;;;;;;4989924;28;20100;-55
2022/09/03 13:45:24;;;;;;;0.88;0.88;;;32.30;35.80;;;;;;4999037;28;20061;-55